sensor_id;sensor_type;location;lat;lon;timestamp;P1;durP1;ratioP1;P2;durP2;ratioP2
6424;SDS011;12193;42.642;23.384;2024-02-15T00:00:15;13.10;;;7.37;;
6424;SDS011;12193;42.642;23.384;2024-02-15T00:02:45;12.57;;;7.77;;
6424;SDS011;12193;42.642;23.384;2024-02-15T00:05:14;12.10;;;7.13;;
6424;SDS011;12193;42.642;23.384;2024-02-15T00:07:46;12.60;;;7.77;;
6424;SDS011;12193;42.642;23.384;2024-02-15T00:10:16;11.37;;;7.20;;
6424;SDS011;12193;42.642;23.384;2024-02-15T00:12:47;12.93;;;7.33;;
6424;SDS011;12193;42.642;23.384;2024-02-15T00:15:16;10.53;;;6.97;;
6424;SDS011;12193;42.642;23.384;2024-02-15T00:17:45;11.87;;;7.07;;
6424;SDS011;12193;42.642;23.384;2024-02-15T00:20:15;11.37;;;6.97;;
6424;SDS011;12193;42.642;23.384;2024-02-15T00:22:49;11.13;;;7.30;;
6424;SDS011;12193;42.642;23.384;2024-02-15T00:25:18;12.20;;;7.13;;
6424;SDS011;12193;42.642;23.384;2024-02-15T00:27:47;11.27;;;7.30;;
6424;SDS011;12193;42.642;23.384;2024-02-15T00:30:17;11.87;;;7.30;;
6424;SDS011;12193;42.642;23.384;2024-02-15T00:32:47;12.67;;;7.53;;
6424;SDS011;12193;42.642;23.384;2024-02-15T00:35:17;13.67;;;7.33;;
6424;SDS011;12193;42.642;23.384;2024-02-15T00:37:48;12.90;;;7.47;;
6424;SDS011;12193;42.642;23.384;2024-02-15T00:40:18;14.53;;;7.53;;
6424;SDS011;12193;42.642;23.384;2024-02-15T00:42:48;13.67;;;7.30;;
6424;SDS011;12193;42.642;23.384;2024-02-15T00:45:17;13.20;;;7.07;;
6424;SDS011;12193;42.642;23.384;2024-02-15T00:47:46;12.00;;;7.23;;
6424;SDS011;12193;42.642;23.384;2024-02-15T00:50:15;12.40;;;7.00;;
6424;SDS011;12193;42.642;23.384;2024-02-15T00:52:45;12.33;;;7.20;;
6424;SDS011;12193;42.642;23.384;2024-02-15T00:55:16;11.97;;;6.60;;
6424;SDS011;12193;42.642;23.384;2024-02-15T00:57:46;12.37;;;7.30;;
6424;SDS011;12193;42.642;23.384;2024-02-15T01:00:15;14.20;;;7.10;;
6424;SDS011;12193;42.642;23.384;2024-02-15T01:02:44;13.33;;;7.63;;
6424;SDS011;12193;42.642;23.384;2024-02-15T01:05:15;11.33;;;6.27;;
6424;SDS011;12193;42.642;23.384;2024-02-15T04:08:27;14.47;;;8.10;;
6424;SDS011;12193;42.642;23.384;2024-02-15T04:10:57;15.77;;;8.43;;
6424;SDS011;12193;42.642;23.384;2024-02-15T04:13:27;15.50;;;8.20;;
6424;SDS011;12193;42.642;23.384;2024-02-15T04:15:56;17.00;;;8.60;;
6424;SDS011;12193;42.642;23.384;2024-02-15T04:18:25;15.97;;;8.60;;
6424;SDS011;12193;42.642;23.384;2024-02-15T04:20:58;14.47;;;8.27;;
6424;SDS011;12193;42.642;23.384;2024-02-15T04:23:30;16.27;;;8.37;;
6424;SDS011;12193;42.642;23.384;2024-02-15T04:25:59;15.13;;;8.13;;
6424;SDS011;12193;42.642;23.384;2024-02-15T04:28:29;13.67;;;8.20;;
6424;SDS011;12193;42.642;23.384;2024-02-15T04:30:59;15.50;;;8.20;;
6424;SDS011;12193;42.642;23.384;2024-02-15T04:33:28;15.40;;;7.53;;
6424;SDS011;12193;42.642;23.384;2024-02-15T04:35:57;14.10;;;7.97;;
6424;SDS011;12193;42.642;23.384;2024-02-15T04:38:31;16.03;;;7.63;;
6424;SDS011;12193;42.642;23.384;2024-02-15T04:41:00;14.73;;;8.27;;
6424;SDS011;12193;42.642;23.384;2024-02-15T04:43:34;14.00;;;7.90;;
6424;SDS011;12193;42.642;23.384;2024-02-15T04:46:06;12.10;;;7.57;;
6424;SDS011;12193;42.642;23.384;2024-02-15T04:48:35;13.83;;;7.70;;
6424;SDS011;12193;42.642;23.384;2024-02-15T04:51:07;12.73;;;7.43;;
6424;SDS011;12193;42.642;23.384;2024-02-15T04:53:39;17.30;;;7.50;;
6424;SDS011;12193;42.642;23.384;2024-02-15T04:56:09;15.13;;;8.50;;
6424;SDS011;12193;42.642;23.384;2024-02-15T04:58:39;15.87;;;7.60;;
6424;SDS011;12193;42.642;23.384;2024-02-15T05:01:12;16.10;;;7.50;;
6424;SDS011;12193;42.642;23.384;2024-02-15T05:03:42;13.47;;;7.63;;
6424;SDS011;12193;42.642;23.384;2024-02-15T05:06:11;14.10;;;7.87;;
6424;SDS011;12193;42.642;23.384;2024-02-15T05:08:43;13.43;;;7.67;;
6424;SDS011;12193;42.642;23.384;2024-02-15T05:11:13;13.30;;;8.20;;
6424;SDS011;12193;42.642;23.384;2024-02-15T05:13:43;16.80;;;7.97;;
6424;SDS011;12193;42.642;23.384;2024-02-15T05:16:13;16.93;;;7.90;;
6424;SDS011;12193;42.642;23.384;2024-02-15T05:18:42;15.23;;;7.80;;
6424;SDS011;12193;42.642;23.384;2024-02-15T05:21:11;21.97;;;8.20;;
6424;SDS011;12193;42.642;23.384;2024-02-15T05:23:44;14.97;;;8.43;;
6424;SDS011;12193;42.642;23.384;2024-02-15T05:26:14;17.70;;;7.90;;
6424;SDS011;12193;42.642;23.384;2024-02-15T05:28:48;13.07;;;7.97;;
6424;SDS011;12193;42.642;23.384;2024-02-15T05:31:18;15.87;;;7.97;;
6424;SDS011;12193;42.642;23.384;2024-02-15T05:33:51;15.53;;;8.07;;
6424;SDS011;12193;42.642;23.384;2024-02-15T05:36:21;14.97;;;7.77;;
6424;SDS011;12193;42.642;23.384;2024-02-15T05:38:53;17.00;;;7.67;;
6424;SDS011;12193;42.642;23.384;2024-02-15T05:41:24;14.27;;;8.40;;
6424;SDS011;12193;42.642;23.384;2024-02-15T05:43:53;15.50;;;8.03;;
6424;SDS011;12193;42.642;23.384;2024-02-15T05:46:23;19.07;;;7.70;;
6424;SDS011;12193;42.642;23.384;2024-02-15T05:48:53;15.40;;;7.80;;
6424;SDS011;12193;42.642;23.384;2024-02-15T05:51:22;17.33;;;7.80;;
6424;SDS011;12193;42.642;23.384;2024-02-15T05:53:54;19.10;;;8.17;;
6424;SDS011;12193;42.642;23.384;2024-02-15T05:56:25;17.03;;;8.23;;
6424;SDS011;12193;42.642;23.384;2024-02-15T05:58:55;17.47;;;7.87;;
6424;SDS011;12193;42.642;23.384;2024-02-15T06:01:24;17.90;;;8.30;;
6424;SDS011;12193;42.642;23.384;2024-02-15T06:03:55;16.97;;;8.37;;
6424;SDS011;12193;42.642;23.384;2024-02-15T06:06:24;16.27;;;7.97;;
6424;SDS011;12193;42.642;23.384;2024-02-15T06:08:56;15.57;;;8.50;;
6424;SDS011;12193;42.642;23.384;2024-02-15T06:11:27;19.40;;;8.10;;
6424;SDS011;12193;42.642;23.384;2024-02-15T06:13:56;17.23;;;8.77;;
6424;SDS011;12193;42.642;23.384;2024-02-15T06:16:26;15.27;;;8.30;;
6424;SDS011;12193;42.642;23.384;2024-02-15T06:18:55;15.57;;;8.03;;
6424;SDS011;12193;42.642;23.384;2024-02-15T06:21:25;13.97;;;8.17;;
6424;SDS011;12193;42.642;23.384;2024-02-15T06:23:59;18.50;;;8.10;;
6424;SDS011;12193;42.642;23.384;2024-02-15T06:26:28;14.77;;;7.33;;
6424;SDS011;12193;42.642;23.384;2024-02-15T06:28:58;15.73;;;8.23;;
6424;SDS011;12193;42.642;23.384;2024-02-15T06:31:39;17.13;;;8.00;;
6424;SDS011;12193;42.642;23.384;2024-02-15T06:34:21;15.53;;;7.67;;
6424;SDS011;12193;42.642;23.384;2024-02-15T06:37:02;13.77;;;7.50;;
6424;SDS011;12193;42.642;23.384;2024-02-15T06:39:46;13.73;;;7.97;;
6424;SDS011;12193;42.642;23.384;2024-02-15T06:42:17;20.10;;;8.80;;
6424;SDS011;12193;42.642;23.384;2024-02-15T06:44:48;17.20;;;7.80;;
6424;SDS011;12193;42.642;23.384;2024-02-15T06:47:17;19.67;;;9.00;;
6424;SDS011;12193;42.642;23.384;2024-02-15T06:49:47;15.90;;;8.30;;
6424;SDS011;12193;42.642;23.384;2024-02-15T06:52:20;16.50;;;8.43;;
6424;SDS011;12193;42.642;23.384;2024-02-15T06:54:51;14.03;;;7.77;;
6424;SDS011;12193;42.642;23.384;2024-02-15T06:57:22;15.80;;;7.83;;
6424;SDS011;12193;42.642;23.384;2024-02-15T06:59:51;16.50;;;7.90;;
6424;SDS011;12193;42.642;23.384;2024-02-15T07:02:20;15.67;;;8.03;;
6424;SDS011;12193;42.642;23.384;2024-02-15T07:04:50;20.17;;;7.77;;
6424;SDS011;12193;42.642;23.384;2024-02-15T07:07:19;14.30;;;7.87;;
6424;SDS011;12193;42.642;23.384;2024-02-15T07:09:48;14.37;;;7.80;;
6424;SDS011;12193;42.642;23.384;2024-02-15T07:12:21;14.13;;;7.13;;
6424;SDS011;12193;42.642;23.384;2024-02-15T07:14:50;18.87;;;7.97;;
6424;SDS011;12193;42.642;23.384;2024-02-15T07:17:20;20.40;;;8.43;;
6424;SDS011;12193;42.642;23.384;2024-02-15T07:19:50;15.47;;;7.50;;
6424;SDS011;12193;42.642;23.384;2024-02-15T07:22:19;15.20;;;8.07;;
6424;SDS011;12193;42.642;23.384;2024-02-15T07:24:48;15.33;;;8.13;;
6424;SDS011;12193;42.642;23.384;2024-02-15T07:27:18;15.30;;;8.17;;
6424;SDS011;12193;42.642;23.384;2024-02-15T07:29:51;16.30;;;7.63;;
6424;SDS011;12193;42.642;23.384;2024-02-15T07:32:21;14.00;;;7.67;;
6424;SDS011;12193;42.642;23.384;2024-02-15T07:34:52;12.90;;;7.10;;
6424;SDS011;12193;42.642;23.384;2024-02-15T07:37:21;14.77;;;8.07;;
6424;SDS011;12193;42.642;23.384;2024-02-15T07:39:51;17.47;;;8.07;;
6424;SDS011;12193;42.642;23.384;2024-02-15T07:42:23;27.37;;;8.80;;
6424;SDS011;12193;42.642;23.384;2024-02-15T07:44:53;25.53;;;8.80;;
6424;SDS011;12193;42.642;23.384;2024-02-15T07:47:22;15.77;;;7.80;;
6424;SDS011;12193;42.642;23.384;2024-02-15T07:49:52;15.93;;;7.53;;
6424;SDS011;12193;42.642;23.384;2024-02-15T07:52:22;17.90;;;7.67;;
6424;SDS011;12193;42.642;23.384;2024-02-15T07:54:51;17.60;;;7.97;;
6424;SDS011;12193;42.642;23.384;2024-02-15T07:57:23;14.37;;;8.03;;
6424;SDS011;12193;42.642;23.384;2024-02-15T07:59:52;12.10;;;7.53;;
6424;SDS011;12193;42.642;23.384;2024-02-15T08:02:21;17.30;;;7.77;;
6424;SDS011;12193;42.642;23.384;2024-02-15T08:04:54;14.50;;;6.97;;
6424;SDS011;12193;42.642;23.384;2024-02-15T08:07:23;14.27;;;7.47;;
6424;SDS011;12193;42.642;23.384;2024-02-15T08:09:57;14.07;;;6.73;;
6424;SDS011;12193;42.642;23.384;2024-02-15T08:12:29;12.63;;;7.07;;
6424;SDS011;12193;42.642;23.384;2024-02-15T08:14:58;14.10;;;7.53;;
6424;SDS011;12193;42.642;23.384;2024-02-15T08:17:28;15.40;;;7.93;;
6424;SDS011;12193;42.642;23.384;2024-02-15T08:19:57;12.87;;;7.83;;
6424;SDS011;12193;42.642;23.384;2024-02-15T08:22:26;14.73;;;7.53;;
6424;SDS011;12193;42.642;23.384;2024-02-15T08:24:56;15.53;;;7.23;;
6424;SDS011;12193;42.642;23.384;2024-02-15T08:27:25;10.33;;;7.00;;
6424;SDS011;12193;42.642;23.384;2024-02-15T08:30:01;14.73;;;7.60;;
6424;SDS011;12193;42.642;23.384;2024-02-15T08:32:34;14.83;;;7.33;;
6424;SDS011;12193;42.642;23.384;2024-02-15T08:35:03;12.27;;;7.53;;
6424;SDS011;12193;42.642;23.384;2024-02-15T08:37:34;11.43;;;7.77;;
6424;SDS011;12193;42.642;23.384;2024-02-15T08:40:04;14.17;;;7.97;;
6424;SDS011;12193;42.642;23.384;2024-02-15T08:42:37;16.67;;;7.40;;
6424;SDS011;12193;42.642;23.384;2024-02-15T08:45:10;14.53;;;7.50;;
6424;SDS011;12193;42.642;23.384;2024-02-15T08:47:40;14.00;;;7.47;;
6424;SDS011;12193;42.642;23.384;2024-02-15T08:50:11;14.27;;;6.73;;
6424;SDS011;12193;42.642;23.384;2024-02-15T08:52:41;15.37;;;6.90;;
6424;SDS011;12193;42.642;23.384;2024-02-15T08:55:10;12.93;;;6.97;;
6424;SDS011;12193;42.642;23.384;2024-02-15T08:57:40;12.70;;;7.30;;
6424;SDS011;12193;42.642;23.384;2024-02-15T09:00:13;30.83;;;8.13;;
6424;SDS011;12193;42.642;23.384;2024-02-15T09:02:42;20.90;;;7.93;;
6424;SDS011;12193;42.642;23.384;2024-02-15T09:05:12;13.00;;;7.20;;
6424;SDS011;12193;42.642;23.384;2024-02-15T09:07:43;15.17;;;7.53;;
6424;SDS011;12193;42.642;23.384;2024-02-15T09:10:14;15.17;;;7.07;;
6424;SDS011;12193;42.642;23.384;2024-02-15T09:12:45;10.73;;;6.40;;
6424;SDS011;12193;42.642;23.384;2024-02-15T09:15:18;13.07;;;7.07;;
6424;SDS011;12193;42.642;23.384;2024-02-15T09:17:48;12.60;;;7.20;;
6424;SDS011;12193;42.642;23.384;2024-02-15T09:20:17;10.77;;;6.90;;
6424;SDS011;12193;42.642;23.384;2024-02-15T09:22:47;10.83;;;7.10;;
6424;SDS011;12193;42.642;23.384;2024-02-15T09:25:17;12.03;;;6.87;;
6424;SDS011;12193;42.642;23.384;2024-02-15T09:27:49;13.10;;;6.93;;
6424;SDS011;12193;42.642;23.384;2024-02-15T09:30:22;13.87;;;6.93;;
6424;SDS011;12193;42.642;23.384;2024-02-15T09:32:53;13.67;;;6.87;;
6424;SDS011;12193;42.642;23.384;2024-02-15T09:35:22;14.57;;;7.03;;
6424;SDS011;12193;42.642;23.384;2024-02-15T09:37:52;13.10;;;6.47;;
6424;SDS011;12193;42.642;23.384;2024-02-15T09:40:22;89.60;;;11.60;;
6424;SDS011;12193;42.642;23.384;2024-02-15T09:42:54;68.97;;;8.80;;
6424;SDS011;12193;42.642;23.384;2024-02-15T09:45:28;18.77;;;7.70;;
6424;SDS011;12193;42.642;23.384;2024-02-15T09:47:59;23.30;;;7.70;;
6424;SDS011;12193;42.642;23.384;2024-02-15T09:50:34;51.10;;;10.20;;
6424;SDS011;12193;42.642;23.384;2024-02-15T09:53:05;25.67;;;8.87;;
6424;SDS011;12193;42.642;23.384;2024-02-15T09:55:35;16.87;;;7.03;;
6424;SDS011;12193;42.642;23.384;2024-02-15T09:58:04;15.13;;;7.87;;
6424;SDS011;12193;42.642;23.384;2024-02-15T10:00:37;11.60;;;6.67;;
6424;SDS011;12193;42.642;23.384;2024-02-15T10:03:07;12.00;;;6.80;;
6424;SDS011;12193;42.642;23.384;2024-02-15T10:05:38;11.57;;;6.10;;
6424;SDS011;12193;42.642;23.384;2024-02-15T10:08:08;12.23;;;6.80;;
6424;SDS011;12193;42.642;23.384;2024-02-15T10:10:37;15.17;;;6.97;;
6424;SDS011;12193;42.642;23.384;2024-02-15T10:13:08;11.87;;;6.87;;
6424;SDS011;12193;42.642;23.384;2024-02-15T10:15:44;23.33;;;7.00;;
6424;SDS011;12193;42.642;23.384;2024-02-15T10:18:13;13.67;;;7.17;;
6424;SDS011;12193;42.642;23.384;2024-02-15T10:20:42;24.47;;;6.80;;
6424;SDS011;12193;42.642;23.384;2024-02-15T10:23:25;13.53;;;6.53;;
6424;SDS011;12193;42.642;23.384;2024-02-15T10:25:54;26.40;;;7.03;;
6424;SDS011;12193;42.642;23.384;2024-02-15T10:28:24;12.50;;;6.50;;
6424;SDS011;12193;42.642;23.384;2024-02-15T10:30:57;14.07;;;7.00;;
6424;SDS011;12193;42.642;23.384;2024-02-15T10:33:39;14.73;;;6.53;;
6424;SDS011;12193;42.642;23.384;2024-02-15T10:36:08;14.27;;;6.50;;
6424;SDS011;12193;42.642;23.384;2024-02-15T10:38:39;12.50;;;6.60;;
6424;SDS011;12193;42.642;23.384;2024-02-15T10:41:08;12.23;;;6.40;;
6424;SDS011;12193;42.642;23.384;2024-02-15T10:43:37;10.10;;;6.03;;
6424;SDS011;12193;42.642;23.384;2024-02-15T10:46:13;8.97;;;5.90;;
6424;SDS011;12193;42.642;23.384;2024-02-15T10:48:43;12.20;;;6.37;;
6424;SDS011;12193;42.642;23.384;2024-02-15T10:51:12;11.07;;;6.07;;
6424;SDS011;12193;42.642;23.384;2024-02-15T10:53:45;9.63;;;5.50;;
6424;SDS011;12193;42.642;23.384;2024-02-15T10:56:26;9.97;;;6.03;;
6424;SDS011;12193;42.642;23.384;2024-02-15T10:58:58;11.97;;;6.30;;
6424;SDS011;12193;42.642;23.384;2024-02-15T11:01:39;12.20;;;6.90;;
6424;SDS011;12193;42.642;23.384;2024-02-15T11:04:11;10.70;;;6.47;;
6424;SDS011;12193;42.642;23.384;2024-02-15T11:06:43;10.67;;;6.03;;
6424;SDS011;12193;42.642;23.384;2024-02-15T11:09:16;10.50;;;5.90;;
6424;SDS011;12193;42.642;23.384;2024-02-15T11:11:47;9.07;;;6.10;;
6424;SDS011;12193;42.642;23.384;2024-02-15T11:14:28;9.20;;;5.70;;
6424;SDS011;12193;42.642;23.384;2024-02-15T11:17:02;10.53;;;5.90;;
6424;SDS011;12193;42.642;23.384;2024-02-15T11:19:42;12.63;;;6.20;;
6424;SDS011;12193;42.642;23.384;2024-02-15T11:22:15;11.03;;;6.10;;
6424;SDS011;12193;42.642;23.384;2024-02-15T11:24:48;10.83;;;6.23;;
6424;SDS011;12193;42.642;23.384;2024-02-15T11:27:25;8.83;;;5.70;;
6424;SDS011;12193;42.642;23.384;2024-02-15T11:29:58;14.70;;;5.70;;
6424;SDS011;12193;42.642;23.384;2024-02-15T11:32:38;10.37;;;6.10;;
6424;SDS011;12193;42.642;23.384;2024-02-15T11:35:15;9.73;;;6.10;;
6424;SDS011;12193;42.642;23.384;2024-02-15T11:37:49;9.17;;;5.70;;
6424;SDS011;12193;42.642;23.384;2024-02-15T11:40:25;9.33;;;5.70;;
6424;SDS011;12193;42.642;23.384;2024-02-15T11:42:56;12.77;;;5.67;;
6424;SDS011;12193;42.642;23.384;2024-02-15T11:45:26;12.10;;;5.90;;
6424;SDS011;12193;42.642;23.384;2024-02-15T11:48:01;8.00;;;5.73;;
6424;SDS011;12193;42.642;23.384;2024-02-15T11:50:33;12.07;;;6.77;;
6424;SDS011;12193;42.642;23.384;2024-02-15T11:53:05;10.03;;;5.67;;
6424;SDS011;12193;42.642;23.384;2024-02-15T11:55:36;10.13;;;6.10;;
6424;SDS011;12193;42.642;23.384;2024-02-15T11:58:07;8.47;;;5.77;;
6424;SDS011;12193;42.642;23.384;2024-02-15T12:00:57;8.50;;;5.40;;
6424;SDS011;12193;42.642;23.384;2024-02-15T12:03:42;11.63;;;6.13;;
6424;SDS011;12193;42.642;23.384;2024-02-15T12:06:24;9.23;;;5.33;;
6424;SDS011;12193;42.642;23.384;2024-02-15T12:09:05;9.30;;;5.40;;
6424;SDS011;12193;42.642;23.384;2024-02-15T12:11:57;8.63;;;5.83;;
6424;SDS011;12193;42.642;23.384;2024-02-15T12:14:39;10.80;;;5.80;;
6424;SDS011;12193;42.642;23.384;2024-02-15T12:17:23;8.93;;;5.63;;
6424;SDS011;12193;42.642;23.384;2024-02-15T12:20:07;8.90;;;5.10;;
6424;SDS011;12193;42.642;23.384;2024-02-15T12:22:39;9.37;;;5.57;;
6424;SDS011;12193;42.642;23.384;2024-02-15T12:25:13;9.53;;;6.10;;
6424;SDS011;12193;42.642;23.384;2024-02-15T12:27:51;7.63;;;5.27;;
6424;SDS011;12193;42.642;23.384;2024-02-15T12:30:21;10.20;;;5.60;;
6424;SDS011;12193;42.642;23.384;2024-02-15T12:32:52;9.03;;;5.70;;
6424;SDS011;12193;42.642;23.384;2024-02-15T12:35:39;11.17;;;5.87;;
6424;SDS011;12193;42.642;23.384;2024-02-15T12:38:08;9.77;;;5.43;;
6424;SDS011;12193;42.642;23.384;2024-02-15T12:40:42;9.87;;;6.07;;
6424;SDS011;12193;42.642;23.384;2024-02-15T12:43:12;11.97;;;6.20;;
6424;SDS011;12193;42.642;23.384;2024-02-15T12:45:42;10.70;;;5.97;;
6424;SDS011;12193;42.642;23.384;2024-02-15T12:48:11;9.97;;;5.80;;
6424;SDS011;12193;42.642;23.384;2024-02-15T12:50:43;12.43;;;5.57;;
6424;SDS011;12193;42.642;23.384;2024-02-15T12:53:12;8.33;;;5.03;;
6424;SDS011;12193;42.642;23.384;2024-02-15T12:55:52;9.13;;;5.33;;
6424;SDS011;12193;42.642;23.384;2024-02-15T12:58:23;14.23;;;6.07;;
6424;SDS011;12193;42.642;23.384;2024-02-15T13:00:55;8.70;;;6.00;;
6424;SDS011;12193;42.642;23.384;2024-02-15T13:03:25;13.63;;;5.73;;
6424;SDS011;12193;42.642;23.384;2024-02-15T13:05:56;10.13;;;5.17;;
6424;SDS011;12193;42.642;23.384;2024-02-15T13:08:26;9.63;;;6.07;;
6424;SDS011;12193;42.642;23.384;2024-02-15T13:10:55;10.10;;;5.27;;
6424;SDS011;12193;42.642;23.384;2024-02-15T13:13:24;9.43;;;5.50;;
6424;SDS011;12193;42.642;23.384;2024-02-15T13:15:54;11.87;;;5.73;;
6424;SDS011;12193;42.642;23.384;2024-02-15T13:18:23;8.33;;;5.10;;
6424;SDS011;12193;42.642;23.384;2024-02-15T13:20:56;10.10;;;5.17;;
6424;SDS011;12193;42.642;23.384;2024-02-15T13:23:26;11.37;;;5.10;;
6424;SDS011;12193;42.642;23.384;2024-02-15T13:25:57;7.43;;;4.87;;
6424;SDS011;12193;42.642;23.384;2024-02-15T13:28:30;8.03;;;4.83;;
6424;SDS011;12193;42.642;23.384;2024-02-15T13:30:59;8.70;;;4.90;;
6424;SDS011;12193;42.642;23.384;2024-02-15T13:33:28;8.10;;;5.07;;
6424;SDS011;12193;42.642;23.384;2024-02-15T13:36:01;9.33;;;5.47;;
6424;SDS011;12193;42.642;23.384;2024-02-15T13:38:32;8.47;;;5.13;;
6424;SDS011;12193;42.642;23.384;2024-02-15T13:41:03;8.83;;;5.57;;
6424;SDS011;12193;42.642;23.384;2024-02-15T13:43:32;8.43;;;5.70;;
6424;SDS011;12193;42.642;23.384;2024-02-15T13:46:01;11.90;;;5.90;;
6424;SDS011;12193;42.642;23.384;2024-02-15T13:48:30;13.27;;;5.70;;
6424;SDS011;12193;42.642;23.384;2024-02-15T13:51:03;10.33;;;5.37;;
6424;SDS011;12193;42.642;23.384;2024-02-15T13:53:34;10.47;;;5.47;;
6424;SDS011;12193;42.642;23.384;2024-02-15T13:56:04;11.03;;;5.50;;
6424;SDS011;12193;42.642;23.384;2024-02-15T13:58:35;9.43;;;5.20;;
6424;SDS011;12193;42.642;23.384;2024-02-15T14:01:04;14.40;;;5.27;;
6424;SDS011;12193;42.642;23.384;2024-02-15T14:03:33;8.90;;;4.67;;
6424;SDS011;12193;42.642;23.384;2024-02-15T14:06:05;8.03;;;5.10;;
6424;SDS011;12193;42.642;23.384;2024-02-15T14:08:35;7.83;;;4.67;;
6424;SDS011;12193;42.642;23.384;2024-02-15T14:11:04;8.60;;;4.60;;
6424;SDS011;12193;42.642;23.384;2024-02-15T14:13:34;5.97;;;4.63;;
6424;SDS011;12193;42.642;23.384;2024-02-15T14:16:04;7.27;;;4.93;;
6424;SDS011;12193;42.642;23.384;2024-02-15T14:18:34;7.27;;;4.90;;
6424;SDS011;12193;42.642;23.384;2024-02-15T14:21:06;8.50;;;4.73;;
6424;SDS011;12193;42.642;23.384;2024-02-15T14:23:36;8.77;;;4.67;;
6424;SDS011;12193;42.642;23.384;2024-02-15T14:26:05;8.00;;;5.00;;
6424;SDS011;12193;42.642;23.384;2024-02-15T14:28:35;8.73;;;5.60;;
6424;SDS011;12193;42.642;23.384;2024-02-15T14:31:07;8.97;;;5.47;;
6424;SDS011;12193;42.642;23.384;2024-02-15T14:33:51;9.50;;;4.90;;
6424;SDS011;12193;42.642;23.384;2024-02-15T14:36:23;13.73;;;5.33;;
6424;SDS011;12193;42.642;23.384;2024-02-15T14:38:52;10.10;;;5.87;;
6424;SDS011;12193;42.642;23.384;2024-02-15T14:41:21;7.17;;;4.70;;
6424;SDS011;12193;42.642;23.384;2024-02-15T14:43:51;8.03;;;4.80;;
6424;SDS011;12193;42.642;23.384;2024-02-15T14:46:20;8.73;;;5.70;;
6424;SDS011;12193;42.642;23.384;2024-02-15T14:48:49;10.00;;;5.00;;
6424;SDS011;12193;42.642;23.384;2024-02-15T14:51:23;14.53;;;6.87;;
6424;SDS011;12193;42.642;23.384;2024-02-15T14:53:52;9.47;;;5.63;;
6424;SDS011;12193;42.642;23.384;2024-02-15T14:56:21;9.23;;;5.30;;
6424;SDS011;12193;42.642;23.384;2024-02-15T14:58:50;9.43;;;5.47;;
6424;SDS011;12193;42.642;23.384;2024-02-15T15:01:20;11.53;;;5.40;;
6424;SDS011;12193;42.642;23.384;2024-02-15T15:03:53;8.13;;;5.00;;
6424;SDS011;12193;42.642;23.384;2024-02-15T15:06:26;9.13;;;5.70;;
6424;SDS011;12193;42.642;23.384;2024-02-15T15:09:08;8.57;;;5.33;;
6424;SDS011;12193;42.642;23.384;2024-02-15T15:11:50;8.30;;;5.00;;
6424;SDS011;12193;42.642;23.384;2024-02-15T15:14:32;12.13;;;5.60;;
6424;SDS011;12193;42.642;23.384;2024-02-15T15:17:03;8.67;;;5.40;;
6424;SDS011;12193;42.642;23.384;2024-02-15T15:19:32;8.23;;;5.60;;
6424;SDS011;12193;42.642;23.384;2024-02-15T15:22:05;11.90;;;5.90;;
6424;SDS011;12193;42.642;23.384;2024-02-15T15:24:34;10.83;;;5.70;;
6424;SDS011;12193;42.642;23.384;2024-02-15T15:27:04;8.40;;;5.53;;
6424;SDS011;12193;42.642;23.384;2024-02-15T15:29:34;9.80;;;5.60;;
6424;SDS011;12193;42.642;23.384;2024-02-15T15:32:03;10.20;;;5.90;;
6424;SDS011;12193;42.642;23.384;2024-02-15T15:34:34;12.83;;;6.10;;
6424;SDS011;12193;42.642;23.384;2024-02-15T15:37:06;11.77;;;6.10;;
6424;SDS011;12193;42.642;23.384;2024-02-15T15:39:38;10.57;;;6.03;;
6424;SDS011;12193;42.642;23.384;2024-02-15T15:42:07;8.97;;;5.70;;
6424;SDS011;12193;42.642;23.384;2024-02-15T15:44:36;9.67;;;5.90;;
6424;SDS011;12193;42.642;23.384;2024-02-15T15:47:06;8.60;;;5.60;;
6424;SDS011;12193;42.642;23.384;2024-02-15T15:49:35;10.20;;;5.90;;
6424;SDS011;12193;42.642;23.384;2024-02-15T15:52:07;9.17;;;5.87;;
6424;SDS011;12193;42.642;23.384;2024-02-15T15:54:39;10.13;;;6.03;;
6424;SDS011;12193;42.642;23.384;2024-02-15T15:57:08;13.47;;;6.20;;
6424;SDS011;12193;42.642;23.384;2024-02-15T15:59:38;11.37;;;6.10;;
6424;SDS011;12193;42.642;23.384;2024-02-15T16:02:09;9.70;;;6.00;;
6424;SDS011;12193;42.642;23.384;2024-02-15T16:04:42;9.40;;;5.70;;
6424;SDS011;12193;42.642;23.384;2024-02-15T16:07:15;11.63;;;5.93;;
6424;SDS011;12193;42.642;23.384;2024-02-15T16:09:44;13.10;;;6.80;;
6424;SDS011;12193;42.642;23.384;2024-02-15T16:12:14;14.97;;;6.63;;
6424;SDS011;12193;42.642;23.384;2024-02-15T16:14:45;10.53;;;5.57;;
6424;SDS011;12193;42.642;23.384;2024-02-15T16:17:20;14.07;;;6.03;;
6424;SDS011;12193;42.642;23.384;2024-02-15T16:19:49;8.50;;;5.43;;
6424;SDS011;12193;42.642;23.384;2024-02-15T16:22:21;12.83;;;5.40;;
6424;SDS011;12193;42.642;23.384;2024-02-15T16:24:51;12.67;;;5.77;;
6424;SDS011;12193;42.642;23.384;2024-02-15T16:27:20;14.37;;;5.80;;
6424;SDS011;12193;42.642;23.384;2024-02-15T16:29:49;14.00;;;5.93;;
6424;SDS011;12193;42.642;23.384;2024-02-15T16:32:18;10.90;;;5.23;;
6424;SDS011;12193;42.642;23.384;2024-02-15T16:34:47;8.57;;;4.50;;
6424;SDS011;12193;42.642;23.384;2024-02-15T16:37:18;11.70;;;5.00;;
6424;SDS011;12193;42.642;23.384;2024-02-15T16:39:50;8.40;;;4.73;;
6424;SDS011;12193;42.642;23.384;2024-02-15T16:42:19;10.63;;;4.70;;
6424;SDS011;12193;42.642;23.384;2024-02-15T16:44:49;7.43;;;4.83;;
6424;SDS011;12193;42.642;23.384;2024-02-15T16:47:18;12.70;;;5.30;;
6424;SDS011;12193;42.642;23.384;2024-02-15T16:49:47;8.93;;;5.10;;
6424;SDS011;12193;42.642;23.384;2024-02-15T16:52:16;16.40;;;5.60;;
6424;SDS011;12193;42.642;23.384;2024-02-15T16:54:48;15.57;;;5.37;;
6424;SDS011;12193;42.642;23.384;2024-02-15T16:57:18;10.17;;;5.50;;
6424;SDS011;12193;42.642;23.384;2024-02-15T16:59:47;11.90;;;5.83;;
6424;SDS011;12193;42.642;23.384;2024-02-15T17:02:19;16.13;;;5.80;;
6424;SDS011;12193;42.642;23.384;2024-02-15T17:04:48;14.73;;;6.73;;
6424;SDS011;12193;42.642;23.384;2024-02-15T17:07:17;15.20;;;5.57;;
6424;SDS011;12193;42.642;23.384;2024-02-15T17:09:49;12.83;;;5.90;;
6424;SDS011;12193;42.642;23.384;2024-02-15T17:12:18;11.73;;;5.80;;
6424;SDS011;12193;42.642;23.384;2024-02-15T17:14:48;11.40;;;5.90;;
6424;SDS011;12193;42.642;23.384;2024-02-15T17:17:17;12.93;;;5.30;;
6424;SDS011;12193;42.642;23.384;2024-02-15T17:19:48;14.37;;;6.87;;
6424;SDS011;12193;42.642;23.384;2024-02-15T17:22:17;12.87;;;6.60;;
6424;SDS011;12193;42.642;23.384;2024-02-15T17:24:51;11.93;;;5.97;;
6424;SDS011;12193;42.642;23.384;2024-02-15T17:27:20;11.40;;;5.70;;
6424;SDS011;12193;42.642;23.384;2024-02-15T17:29:49;11.17;;;6.27;;
6424;SDS011;12193;42.642;23.384;2024-02-15T17:32:18;16.00;;;6.17;;
6424;SDS011;12193;42.642;23.384;2024-02-15T17:34:47;13.93;;;6.33;;
6424;SDS011;12193;42.642;23.384;2024-02-15T17:37:16;19.00;;;6.13;;
6424;SDS011;12193;42.642;23.384;2024-02-15T17:39:45;13.40;;;6.70;;
6424;SDS011;12193;42.642;23.384;2024-02-15T17:42:17;12.50;;;6.50;;
6424;SDS011;12193;42.642;23.384;2024-02-15T17:44:46;11.50;;;6.20;;
6424;SDS011;12193;42.642;23.384;2024-02-15T17:47:15;11.87;;;5.80;;
6424;SDS011;12193;42.642;23.384;2024-02-15T17:49:45;12.97;;;6.03;;
6424;SDS011;12193;42.642;23.384;2024-02-15T17:52:14;12.73;;;6.53;;
6424;SDS011;12193;42.642;23.384;2024-02-15T17:54:43;12.17;;;6.50;;
6424;SDS011;12193;42.642;23.384;2024-02-15T17:57:12;18.33;;;7.03;;
6424;SDS011;12193;42.642;23.384;2024-02-15T17:59:44;12.93;;;5.73;;
6424;SDS011;12193;42.642;23.384;2024-02-15T18:02:13;12.93;;;5.80;;